Terminal Aerodrome Forecast
Issued by NWS Wilmington, OH

Current Version | Previous Version | Graphics & Text | Print | Product List | Glossary On
Versions: 1 2 3 4 5 6 7 8 9 10 11 12 13 14 15 16 17 18 19 20
000
FTUS41 KILN 012147 AAA
TAFDAY
TAF AMD
KDAY 012147Z 0122/0218 30010KT P6SM VCTS BKN040CB
     FM020100 VRB03KT P6SM FEW050
     FM020800 VRB03KT P6SM VCSH BKN040
     FM021400 27005KT P6SM BKN050=

USA.gov is the U.S. government's official web portal to all federal, state and local government web resources and services.